Time;durP1;ratioP1;P1;durP2;ratioP2;P2;SDS_P1;SDS_P2;PMS_P1;PMS_P2;Temp;Humidity;BMP_temperature;BMP_pressure;BME280_temperature;BME280_humidity;BME280_pressure;Samples;Min_cycle;Max_cycle;Signal;HPM_P1;HPM_P2
2022/03/25 00:10:33;;;;;;;;;;;;;;;;;;;;;
2022/03/25 00:48:37;;;;;;;9.57;9.27;;;4.00;99.90;;;;;;6093090;23;20200;-85
2022/03/25 01:18:31;;;;;;;9.60;9.30;;;3.50;99.90;;;;;;5969220;23;20200;-84
2022/03/25 01:29:30;;;;;;;9.83;9.53;;;3.20;99.90;;;;;;5971845;23;20200;-84
2022/03/25 02:10:30;;;;;;;9.47;9.17;;;2.80;99.90;;;;;;6100083;22;20202;-84
2022/03/25 02:13:12;;;;;;;9.63;9.33;;;2.70;99.90;;;;;;6262886;22;20202;-83
2022/03/25 02:20:29;;;;;;;9.70;9.40;;;2.70;99.90;;;;;;6258231;22;20199;-83
2022/03/25 02:31:05;;;;;;;9.90;9.60;;;2.50;99.90;;;;;;6162910;23;20195;-84
2022/03/25 02:37:45;;;;;;;9.80;9.50;;;2.30;99.90;;;;;;6150937;22;20248;-84
2022/03/25 02:40:34;;;;;;;9.70;9.40;;;2.30;99.90;;;;;;6274799;22;20207;-83
2022/03/25 02:43:37;;;;;;;9.83;9.53;;;2.20;99.90;;;;;;6258811;22;20198;-84
2022/03/25 02:46:25;;;;;;;9.80;9.50;;;2.20;99.90;;;;;;6257629;22;20189;-84
2022/03/25 02:49:31;;;;;;;9.90;9.60;;;2.20;99.90;;;;;;6255946;22;20269;-83
2022/03/25 02:52:00;;;;;;;10.00;9.70;;;2.20;99.90;;;;;;6202546;22;20390;-83
2022/03/25 02:54:27;;;;;;;9.50;9.20;;;2.20;99.90;;;;;;6271166;22;20198;-83
2022/03/25 02:56:55;;;;;;;9.67;9.37;;;2.20;99.90;;;;;;6257156;22;20204;-85
2022/03/25 02:59:25;;;;;;;9.57;9.27;;;2.30;99.90;;;;;;6256046;22;20194;-82
2022/03/25 03:01:53;;;;;;;9.70;9.40;;;2.40;99.90;;;;;;6257305;22;20293;-83
2022/03/25 03:04:21;;;;;;;9.70;9.40;;;2.40;99.90;;;;;;6257555;22;20197;-83
2022/03/25 03:06:49;;;;;;;9.57;9.27;;;2.40;99.90;;;;;;6257563;22;20208;-83
2022/03/25 03:09:16;;;;;;;9.50;9.20;;;2.40;99.90;;;;;;6258075;22;20194;-83
2022/03/25 03:11:44;;;;;;;9.53;9.23;;;2.40;99.90;;;;;;6258366;22;20190;-82
2022/03/25 03:14:15;;;;;;;9.50;9.20;;;2.40;99.90;;;;;;6258851;22;20190;-83
2022/03/25 03:16:44;;;;;;;9.50;9.20;;;2.40;99.90;;;;;;6258356;22;20198;-83
2022/03/25 03:19:12;;;;;;;9.40;9.10;;;2.40;99.90;;;;;;6258232;22;20205;-83
2022/03/25 03:21:40;;;;;;;9.60;9.30;;;2.40;99.90;;;;;;6258170;22;20210;-83
2022/03/25 03:24:09;;;;;;;10.00;9.70;;;2.40;99.90;;;;;;6257888;22;20209;-83
2022/03/25 03:26:37;;;;;;;9.90;9.60;;;2.30;99.90;;;;;;6260674;22;20258;-82
2022/03/25 03:29:05;;;;;;;10.10;9.80;;;2.30;99.90;;;;;;6255209;22;20194;-83
2022/03/25 03:31:33;;;;;;;9.87;9.57;;;2.30;99.90;;;;;;6255390;22;20210;-83
2022/03/25 03:34:02;;;;;;;10.00;9.70;;;2.20;99.90;;;;;;6256506;22;20880;-83
2022/03/25 03:36:30;;;;;;;10.40;10.10;;;2.00;99.90;;;;;;6263780;22;20198;-83
2022/03/25 03:38:58;;;;;;;10.13;9.83;;;2.00;99.90;;;;;;6261958;22;20200;-83
2022/03/25 03:41:28;;;;;;;10.30;10.00;;;2.00;99.90;;;;;;6259823;22;20206;-83
2022/03/25 03:43:55;;;;;;;10.30;10.00;;;2.00;99.90;;;;;;6260523;22;20206;-83
2022/03/25 03:46:23;;;;;;;10.10;9.80;;;2.00;99.90;;;;;;6259996;22;20251;-83
2022/03/25 03:48:51;;;;;;;10.30;10.00;;;1.90;99.90;;;;;;6259821;22;20234;-83
2022/03/25 03:51:21;;;;;;;10.50;10.20;;;1.80;99.90;;;;;;6260638;22;20258;-85
2022/03/25 03:53:49;;;;;;;10.23;9.93;;;1.80;99.90;;;;;;6260275;22;20190;-83
2022/03/25 03:56:17;;;;;;;10.40;10.10;;;1.80;99.90;;;;;;6261472;22;20886;-83
2022/03/25 03:58:45;;;;;;;10.50;10.20;;;1.70;99.90;;;;;;6269766;22;20194;-82
2022/03/25 04:01:13;;;;;;;10.10;9.80;;;1.70;99.90;;;;;;6279309;22;20206;-80
2022/03/25 04:03:41;;;;;;;10.27;9.97;;;1.70;99.90;;;;;;6278253;22;20241;-82
2022/03/25 04:06:09;;;;;;;10.23;9.93;;;1.60;99.90;;;;;;6278349;22;20194;-81
2022/03/25 04:08:38;;;;;;;10.13;9.83;;;1.60;99.90;;;;;;6279107;22;20192;-81
2022/03/25 04:11:07;;;;;;;9.73;9.43;;;1.50;99.90;;;;;;6278471;22;20221;-81
2022/03/25 04:13:35;;;;;;;10.30;10.00;;;1.50;99.90;;;;;;6278851;22;20221;-81
2022/03/25 04:16:03;;;;;;;10.20;9.90;;;1.50;99.90;;;;;;6271794;22;20198;-82
2022/03/25 04:18:34;;;;;;;10.10;9.80;;;1.60;99.90;;;;;;6259268;22;20214;-83
2022/03/25 04:21:02;;;;;;;10.20;9.90;;;1.50;99.90;;;;;;6258584;22;20249;-82
2022/03/25 04:23:30;;;;;;;10.07;9.77;;;1.50;99.90;;;;;;6263225;22;20221;-82
2022/03/25 04:25:59;;;;;;;10.40;10.10;;;1.50;99.90;;;;;;6263292;22;20269;-81
2022/03/25 04:28:27;;;;;;;10.30;10.00;;;1.40;99.90;;;;;;6270353;22;20249;-80
2022/03/25 04:30:55;;;;;;;10.17;9.87;;;1.40;99.90;;;;;;6278406;22;20186;-80
2022/03/25 04:33:24;;;;;;;10.30;10.00;;;1.30;99.90;;;;;;6275067;22;20256;-81
2022/03/25 04:35:52;;;;;;;10.00;9.70;;;1.30;99.90;;;;;;6265014;22;20202;-82
2022/03/25 04:38:20;;;;;;;10.30;10.00;;;1.30;99.90;;;;;;6267396;22;20213;-82
2022/03/25 04:40:48;;;;;;;10.20;9.90;;;1.30;99.90;;;;;;6266957;22;20221;-82
2022/03/25 04:43:17;;;;;;;10.07;9.77;;;1.20;99.90;;;;;;6263420;22;20199;-82
2022/03/25 04:45:45;;;;;;;10.23;9.93;;;1.20;99.90;;;;;;6262443;22;20209;-82
2022/03/25 04:48:14;;;;;;;10.50;10.20;;;1.20;99.90;;;;;;6262058;22;20682;-82
2022/03/25 04:50:43;;;;;;;10.20;9.90;;;1.10;99.90;;;;;;6261490;22;20204;-82
2022/03/25 04:53:11;;;;;;;10.47;10.17;;;1.10;99.90;;;;;;6260864;22;20261;-82
2022/03/25 04:55:39;;;;;;;10.70;10.40;;;1.00;99.90;;;;;;6260628;22;20202;-82
2022/03/25 04:58:07;;;;;;;10.57;10.27;;;0.90;99.90;;;;;;6259835;22;20186;-83
2022/03/25 05:00:42;;;;;;;10.50;10.20;;;0.90;99.90;;;;;;6260919;22;20210;-83
2022/03/25 05:03:11;;;;;;;10.40;10.10;;;0.90;99.90;;;;;;6267977;22;20209;-83
2022/03/25 05:05:42;;;;;;;10.50;10.20;;;0.90;99.90;;;;;;6273667;22;20191;-83
2022/03/25 05:08:15;;;;;;;10.90;10.60;;;0.90;99.90;;;;;;6268435;22;20289;-82
2022/03/25 05:10:45;;;;;;;10.77;10.47;;;0.90;99.90;;;;;;6272267;22;20228;-81
2022/03/25 05:13:16;;;;;;;10.77;10.47;;;0.90;99.90;;;;;;6262456;22;20288;-82
2022/03/25 05:15:45;;;;;;;10.50;10.20;;;0.90;99.90;;;;;;6260502;22;20194;-83
2022/03/25 05:18:13;;;;;;;10.73;10.43;;;0.90;99.90;;;;;;6262084;22;20706;-83
2022/03/25 05:20:41;;;;;;;10.57;10.27;;;0.90;99.90;;;;;;6258872;22;20268;-83
2022/03/25 05:23:10;;;;;;;10.60;10.30;;;0.80;99.90;;;;;;6259188;22;20261;-83
2022/03/25 05:25:38;;;;;;;10.30;10.00;;;0.80;99.90;;;;;;6260307;22;20190;-82
2022/03/25 05:28:06;;;;;;;10.40;10.10;;;0.80;99.90;;;;;;6258865;22;20191;-83
2022/03/25 05:30:35;;;;;;;10.60;10.30;;;0.80;99.90;;;;;;6259684;22;20210;-83
2022/03/25 05:33:05;;;;;;;10.70;10.40;;;0.90;99.90;;;;;;6259456;22;20233;-83
2022/03/25 05:35:35;;;;;;;10.37;10.07;;;0.90;99.90;;;;;;6263317;22;20208;-83
2022/03/25 05:38:05;;;;;;;10.60;10.30;;;0.90;99.90;;;;;;6258874;22;20190;-83
2022/03/25 05:40:33;;;;;;;10.30;10.00;;;0.90;99.90;;;;;;6260102;22;20198;-83
2022/03/25 05:43:04;;;;;;;10.43;10.13;;;0.90;99.90;;;;;;6258931;22;20208;-83
2022/03/25 05:45:50;;;;;;;10.40;10.10;;;0.90;99.90;;;;;;6259881;22;20256;-83
2022/03/25 05:48:19;;;;;;;10.30;10.00;;;1.00;99.90;;;;;;6261970;22;20216;-84
2022/03/25 05:50:48;;;;;;;10.20;9.90;;;1.10;99.90;;;;;;6259134;22;20210;-84
2022/03/25 05:53:19;;;;;;;10.30;10.00;;;1.10;99.90;;;;;;6261597;22;20253;-83
2022/03/25 05:55:47;;;;;;;10.20;9.90;;;1.10;99.90;;;;;;6260721;22;20653;-82
2022/03/25 05:58:15;;;;;;;10.53;10.23;;;1.20;99.90;;;;;;6255482;22;20544;-82
2022/03/25 06:00:43;;;;;;;10.37;10.07;;;1.20;99.90;;;;;;6255753;22;20206;-84
2022/03/25 06:03:11;;;;;;;10.30;10.00;;;1.20;99.90;;;;;;6255613;22;20204;-82
2022/03/25 06:05:41;;;;;;;10.10;9.80;;;1.30;99.90;;;;;;6258450;22;20202;-82
2022/03/25 06:08:09;;;;;;;10.20;9.90;;;1.30;99.90;;;;;;6260029;22;20221;-81
2022/03/25 06:10:37;;;;;;;10.10;9.80;;;1.40;99.90;;;;;;6259507;22;20224;-82
2022/03/25 06:13:06;;;;;;;10.23;9.93;;;1.50;99.90;;;;;;6260364;22;20249;-83
2022/03/25 06:15:35;;;;;;;9.93;9.63;;;1.60;99.90;;;;;;6262521;22;20209;-83
2022/03/25 06:18:04;;;;;;;10.07;9.77;;;1.70;99.90;;;;;;6266317;22;20269;-83
2022/03/25 06:20:35;;;;;;;10.30;10.00;;;1.70;99.90;;;;;;6262105;22;20242;-83
2022/03/25 06:23:13;;;;;;;10.10;9.80;;;1.80;99.90;;;;;;6263538;22;20195;-83
2022/03/25 06:25:41;;;;;;;10.30;10.00;;;1.90;99.90;;;;;;6264893;22;20221;-83
2022/03/25 06:28:09;;;;;;;10.23;9.93;;;2.00;99.90;;;;;;6260563;22;20198;-83
2022/03/25 06:30:39;;;;;;;10.10;9.80;;;2.10;99.90;;;;;;6265908;22;20209;-80
2022/03/25 06:33:10;;;;;;;10.07;9.77;;;2.10;99.90;;;;;;6316903;22;20196;-80
2022/03/25 06:35:39;;;;;;;10.40;10.10;;;2.20;99.90;;;;;;6320385;22;20215;-80
2022/03/25 06:38:08;;;;;;;10.40;10.10;;;2.20;99.90;;;;;;6330812;22;20207;-80
2022/03/25 06:40:36;;;;;;;10.40;10.10;;;2.30;99.90;;;;;;6314283;22;20224;-81
2022/03/25 06:43:05;;;;;;;10.00;9.70;;;2.40;99.90;;;;;;6287940;22;20201;-80
2022/03/25 06:45:34;;;;;;;10.00;9.70;;;2.60;99.90;;;;;;6290272;22;20189;-81
2022/03/25 06:48:01;;;;;;;10.03;9.73;;;2.70;99.90;;;;;;6287963;22;20202;-80
2022/03/25 06:50:30;;;;;;;10.10;9.80;;;2.80;99.90;;;;;;6288718;22;20201;-81
2022/03/25 06:53:01;;;;;;;10.20;9.90;;;2.90;99.90;;;;;;6288390;22;20205;-80
2022/03/25 06:55:31;;;;;;;10.23;9.93;;;3.00;99.90;;;;;;6288311;22;21080;-80
2022/03/25 06:58:00;;;;;;;9.97;9.67;;;3.10;99.90;;;;;;6286446;22;20205;-80
2022/03/25 07:00:27;;;;;;;10.33;10.03;;;3.30;99.90;;;;;;6286716;22;20256;-80
2022/03/25 07:02:56;;;;;;;10.40;10.10;;;3.40;99.90;;;;;;6286553;22;20202;-80
2022/03/25 07:05:24;;;;;;;10.30;10.00;;;3.50;99.90;;;;;;6287946;22;20201;-80
2022/03/25 07:07:53;;;;;;;10.50;10.20;;;3.70;99.90;;;;;;6303284;22;20207;-80
2022/03/25 07:10:23;;;;;;;10.37;10.07;;;3.90;99.90;;;;;;6310781;22;20200;-80
2022/03/25 07:12:54;;;;;;;10.70;10.40;;;4.20;99.90;;;;;;6303448;22;20186;-80
2022/03/25 07:15:23;;;;;;;10.60;10.30;;;4.40;99.90;;;;;;6288983;22;20206;-80
2022/03/25 07:17:52;;;;;;;10.77;10.47;;;4.60;99.90;;;;;;6289130;22;20190;-80
2022/03/25 07:20:21;;;;;;;10.70;10.40;;;4.70;99.90;;;;;;6287677;22;20216;-80
2022/03/25 07:22:52;;;;;;;10.40;10.10;;;4.90;99.90;;;;;;6286547;22;20292;-80
2022/03/25 07:25:21;;;;;;;10.70;10.40;;;5.00;99.90;;;;;;6287807;22;20332;-81
2022/03/25 07:27:51;;;;;;;10.40;10.10;;;5.10;99.90;;;;;;6285844;22;20197;-79
2022/03/25 07:30:20;;;;;;;10.53;10.23;;;5.30;99.90;;;;;;6285401;22;20197;-81
2022/03/25 07:32:48;;;;;;;10.80;10.50;;;5.50;99.90;;;;;;6289815;22;20588;-81
2022/03/25 07:35:17;;;;;;;10.70;10.40;;;5.60;99.90;;;;;;6288636;22;20249;-81
2022/03/25 07:37:46;;;;;;;10.47;10.17;;;5.70;99.90;;;;;;6289392;22;20268;-81
2022/03/25 07:40:15;;;;;;;10.60;10.30;;;5.90;99.90;;;;;;6290125;22;20206;-81
2022/03/25 07:42:45;;;;;;;10.40;10.10;;;6.00;99.90;;;;;;6287286;22;20248;-81
2022/03/25 07:45:16;;;;;;;10.63;10.33;;;6.20;99.90;;;;;;6291150;22;20202;-81
2022/03/25 07:47:45;;;;;;;10.80;10.50;;;6.30;99.90;;;;;;6291347;22;20606;-80
2022/03/25 07:50:15;;;;;;;10.70;10.40;;;6.40;99.90;;;;;;6295312;22;20198;-81
2022/03/25 07:52:43;;;;;;;10.60;10.30;;;6.50;99.90;;;;;;6301638;22;20185;-80
2022/03/25 07:55:11;;;;;;;10.70;10.40;;;6.60;99.90;;;;;;6302160;22;20206;-81
2022/03/25 07:57:40;;;;;;;10.80;10.50;;;6.80;99.90;;;;;;6303213;22;20201;-81
2022/03/25 08:00:12;;;;;;;10.90;10.60;;;7.00;99.90;;;;;;6301591;22;20217;-81
2022/03/25 08:02:42;;;;;;;10.83;10.53;;;7.20;99.90;;;;;;6301362;22;20209;-81
2022/03/25 08:05:13;;;;;;;11.00;10.70;;;7.30;99.90;;;;;;6301590;22;20201;-81
2022/03/25 08:07:48;;;;;;;10.77;10.47;;;7.50;99.90;;;;;;6294490;22;20194;-81
2022/03/25 08:10:19;;;;;;;10.97;10.67;;;7.60;99.90;;;;;;6299768;22;20193;-81
2022/03/25 08:12:47;;;;;;;10.87;10.57;;;7.80;99.90;;;;;;6290644;22;20263;-78
2022/03/25 08:15:15;;;;;;;11.03;10.73;;;7.90;99.90;;;;;;6288204;22;20256;-79
2022/03/25 08:17:54;;;;;;;11.10;10.80;;;8.10;99.90;;;;;;6292100;22;20198;-79
2022/03/25 08:20:26;;;;;;;11.00;10.70;;;8.30;99.90;;;;;;6288895;22;20194;-78
2022/03/25 08:22:54;;;;;;;10.90;10.60;;;8.40;99.90;;;;;;6288988;22;20285;-79
2022/03/25 08:28:10;;;;;;;10.60;10.30;;;8.90;99.90;;;;;;6289807;22;20186;-79
2022/03/25 08:30:38;;;;;;;10.70;10.40;;;9.10;99.90;;;;;;6286638;22;20205;-79
2022/03/25 08:33:08;;;;;;;10.50;10.20;;;9.20;99.90;;;;;;6286409;22;20186;-79
2022/03/25 08:35:36;;;;;;;10.53;10.23;;;9.30;99.90;;;;;;6288168;22;20267;-78
2022/03/25 08:38:05;;;;;;;10.37;10.07;;;9.40;99.90;;;;;;6287183;22;20205;-79
2022/03/25 08:40:34;;;;;;;10.80;10.50;;;9.70;99.90;;;;;;6287659;22;20263;-79
2022/03/25 08:43:02;;;;;;;11.03;10.73;;;9.90;99.90;;;;;;6290687;22;20280;-81
2022/03/25 08:45:30;;;;;;;10.90;10.60;;;10.20;99.90;;;;;;6288774;22;20206;-80
2022/03/25 08:47:58;;;;;;;10.70;10.40;;;10.40;99.90;;;;;;6296364;22;20195;-79
2022/03/25 08:50:28;;;;;;;10.90;10.60;;;10.40;99.90;;;;;;6296238;22;20217;-80
2022/03/25 08:52:56;;;;;;;11.00;10.70;;;10.50;99.90;;;;;;6296584;22;20220;-79
2022/03/25 08:55:24;;;;;;;10.80;10.50;;;10.80;99.90;;;;;;6299443;22;20193;-80
2022/03/25 08:57:52;;;;;;;10.83;10.53;;;11.00;99.90;;;;;;6299141;22;20220;-79
2022/03/25 09:00:21;;;;;;;10.70;10.40;;;11.20;99.90;;;;;;6300158;22;20186;-79
2022/03/25 09:02:49;;;;;;;10.97;10.67;;;11.40;99.90;;;;;;6300940;22;20193;-80
2022/03/25 09:05:18;;;;;;;11.10;10.80;;;11.60;99.90;;;;;;6300205;22;20216;-79
2022/03/25 09:07:47;;;;;;;10.83;10.53;;;11.80;99.90;;;;;;6299141;22;20253;-80
2022/03/25 09:10:16;;;;;;;10.90;10.60;;;12.10;99.90;;;;;;6300958;22;20224;-80
2022/03/25 09:12:45;;;;;;;10.70;10.40;;;12.30;99.90;;;;;;6303920;22;20258;-81
2022/03/25 09:15:15;;;;;;;10.87;10.57;;;12.50;99.90;;;;;;6310758;22;20177;-80
2022/03/25 09:17:43;;;;;;;11.00;10.70;;;12.70;99.90;;;;;;6310369;22;20189;-80
2022/03/25 09:20:13;;;;;;;11.00;10.70;;;13.00;99.90;;;;;;6308868;22;20204;-80
2022/03/25 09:22:41;;;;;;;11.40;11.00;;;13.20;99.90;;;;;;6306643;22;20198;-80
2022/03/25 09:25:12;;;;;;;11.00;10.70;;;13.50;99.90;;;;;;6304775;22;20198;-81
2022/03/25 09:27:41;;;;;;;10.97;10.67;;;13.70;99.90;;;;;;6303547;22;20216;-80
2022/03/25 09:30:12;;;;;;;11.33;11.03;;;13.80;99.90;;;;;;6303047;22;20226;-80
2022/03/25 09:32:40;;;;;;;10.77;10.47;;;14.30;99.90;;;;;;6304186;22;20194;-80
2022/03/25 09:35:13;;;;;;;11.00;10.70;;;14.70;99.90;;;;;;6303612;22;20194;-80
2022/03/25 09:37:44;;;;;;;10.43;10.13;;;14.90;99.90;;;;;;6302630;22;20194;-80
2022/03/25 09:40:16;;;;;;;10.68;10.38;;;14.80;99.90;;;;;;6300383;22;20216;-80
2022/03/25 09:42:45;;;;;;;10.52;10.23;;;15.00;99.90;;;;;;6300001;22;20241;-80
2022/03/25 09:45:15;;;;;;;10.60;10.30;;;15.10;99.90;;;;;;6297401;22;20225;-80
2022/03/25 09:47:45;;;;;;;10.48;10.18;;;15.40;99.90;;;;;;6296969;22;20213;-81
2022/03/25 09:50:16;;;;;;;10.70;10.40;;;15.60;99.90;;;;;;6293269;22;20201;-80
2022/03/25 09:52:45;;;;;;;10.40;10.10;;;15.70;99.90;;;;;;6292287;22;20194;-80
2022/03/25 09:55:14;;;;;;;10.20;9.90;;;15.90;99.90;;;;;;6294941;22;20248;-81
2022/03/25 09:57:43;;;;;;;10.35;10.05;;;16.30;99.90;;;;;;6296357;22;20194;-81
2022/03/25 10:00:17;;;;;;;10.48;10.18;;;16.50;99.90;;;;;;6299499;22;20201;-80
2022/03/25 10:02:45;;;;;;;10.68;10.38;;;16.50;99.90;;;;;;6297108;22;20197;-81
2022/03/25 10:05:18;;;;;;;10.82;10.52;;;16.80;99.90;;;;;;6294984;22;20197;-80
2022/03/25 10:07:48;;;;;;;11.02;10.73;;;17.00;99.90;;;;;;6295707;22;20231;-80
2022/03/25 10:10:21;;;;;;;11.00;10.70;;;17.20;99.90;;;;;;6300835;22;20216;-79
2022/03/25 10:12:51;;;;;;;10.90;10.60;;;17.40;99.90;;;;;;6296665;22;20197;-81
2022/03/25 10:15:21;;;;;;;11.05;10.75;;;17.60;99.90;;;;;;6294257;22;20190;-80
2022/03/25 10:17:51;;;;;;;10.88;10.57;;;17.70;99.90;;;;;;6287648;22;20249;-80
2022/03/25 10:20:21;;;;;;;11.10;10.80;;;17.80;99.90;;;;;;6287936;22;20198;-81
2022/03/25 10:23:06;;;;;;;11.10;10.80;;;17.90;99.90;;;;;;6288216;22;20194;-81
2022/03/25 10:25:45;;;;;;;11.02;10.73;;;18.30;99.90;;;;;;6287797;22;20193;-81
2022/03/25 10:28:25;;;;;;;10.80;10.50;;;18.40;99.90;;;;;;6288424;22;20200;-80
2022/03/25 10:30:55;;;;;;;11.10;10.80;;;18.70;99.90;;;;;;6287077;22;20252;-80
2022/03/25 10:33:28;;;;;;;11.05;10.75;;;19.10;99.90;;;;;;6290526;22;20189;-80
2022/03/25 10:36:01;;;;;;;10.73;10.43;;;19.20;99.90;;;;;;6296944;22;20206;-80
2022/03/25 10:38:43;;;;;;;10.60;10.30;;;19.20;99.90;;;;;;6290568;22;20202;-80
2022/03/25 10:41:14;;;;;;;10.70;10.40;;;19.50;99.90;;;;;;6307624;22;20220;-81
2022/03/25 10:44:02;;;;;;;10.70;10.40;;;19.50;99.90;;;;;;6308734;22;20182;-81
2022/03/25 10:46:40;;;;;;;10.55;10.25;;;19.40;99.90;;;;;;6309252;22;20241;-80
2022/03/25 10:49:10;;;;;;;10.70;10.40;;;19.60;99.90;;;;;;6310514;22;20204;-81
2022/03/25 10:51:41;;;;;;;10.40;10.10;;;19.80;99.90;;;;;;6310126;22;20188;-81
2022/03/25 10:54:11;;;;;;;11.07;10.77;;;20.10;99.90;;;;;;6309121;22;20186;-80
2022/03/25 10:56:48;;;;;;;11.20;10.90;;;20.20;99.90;;;;;;6309645;22;20206;-79
2022/03/25 10:59:27;;;;;;;11.10;10.80;;;20.20;99.90;;;;;;6308169;22;20253;-80
2022/03/25 11:01:58;;;;;;;11.10;10.80;;;20.30;98.90;;;;;;6308923;22;20244;-80
2022/03/25 11:04:26;;;;;;;10.70;10.40;;;20.40;98.00;;;;;;6307734;22;20224;-80
2022/03/25 11:06:56;;;;;;;11.13;10.82;;;20.70;97.10;;;;;;6304585;22;20194;-80
2022/03/25 11:09:26;;;;;;;11.10;10.80;;;20.80;96.20;;;;;;6306429;22;20190;-80
2022/03/25 11:11:57;;;;;;;11.07;10.77;;;20.80;95.10;;;;;;6307838;22;20198;-80
2022/03/25 11:14:25;;;;;;;11.20;10.90;;;21.00;94.40;;;;;;6306762;22;20212;-80
2022/03/25 11:16:56;;;;;;;10.90;10.60;;;20.90;93.10;;;;;;6300391;22;20239;-80
2022/03/25 11:19:24;;;;;;;11.00;10.70;;;21.10;93.10;;;;;;6304660;22;20192;-80
2022/03/25 11:21:54;;;;;;;10.95;10.65;;;21.00;92.30;;;;;;6303911;22;20213;-81
2022/03/25 11:24:25;;;;;;;10.70;10.40;;;21.30;91.90;;;;;;6303639;22;20202;-80
2022/03/25 11:26:57;;;;;;;10.63;10.32;;;21.50;91.00;;;;;;6300827;22;20186;-80
2022/03/25 11:29:27;;;;;;;10.60;10.30;;;21.20;90.60;;;;;;6296707;22;20216;-78
2022/03/25 11:32:08;;;;;;;10.48;10.18;;;21.10;91.30;;;;;;6294439;22;20285;-80
2022/03/25 11:34:45;;;;;;;10.50;10.20;;;21.50;91.00;;;;;;6291105;22;20204;-80
2022/03/25 11:37:23;;;;;;;10.60;10.30;;;21.50;90.80;;;;;;6291321;22;20186;-80
2022/03/25 11:40:25;;;;;;;10.50;10.20;;;21.60;90.80;;;;;;6293299;22;20197;-80
2022/03/25 11:42:57;;;;;;;10.85;10.55;;;21.90;90.50;;;;;;6288508;22;20197;-80
2022/03/25 11:45:37;;;;;;;11.30;11.00;;;21.90;87.90;;;;;;6289276;22;20193;-80
2022/03/25 11:48:42;;;;;;;10.90;10.60;;;21.80;87.70;;;;;;6291499;22;20193;-80
2022/03/25 11:51:35;;;;;;;10.30;10.00;;;22.20;89.10;;;;;;6285067;22;20210;-80
2022/03/25 11:54:35;;;;;;;10.60;10.30;;;22.10;85.90;;;;;;6295046;22;20198;-80
2022/03/25 11:57:07;;;;;;;10.75;10.45;;;22.40;85.50;;;;;;6294910;22;20190;-80
2022/03/25 11:59:53;;;;;;;10.52;10.23;;;22.80;85.40;;;;;;6289182;22;20201;-80
2022/03/25 12:02:27;;;;;;;10.77;10.48;;;23.30;84.50;;;;;;6288597;22;20694;-80
2022/03/25 12:04:54;;;;;;;10.70;10.40;;;23.40;81.70;;;;;;6287273;22;20205;-80
2022/03/25 12:07:22;;;;;;;10.77;10.48;;;22.30;82.30;;;;;;6287523;22;20272;-80
2022/03/25 12:09:50;;;;;;;10.82;10.52;;;22.30;84.40;;;;;;6286993;22;20198;-80
2022/03/25 12:12:18;;;;;;;10.95;10.65;;;22.80;84.10;;;;;;6286800;22;20263;-80
2022/03/25 12:15:11;;;;;;;10.55;10.25;;;23.10;83.80;;;;;;6286977;22;20202;-80
2022/03/25 12:17:39;;;;;;;11.00;10.70;;;23.30;82.40;;;;;;6287413;22;20229;-80
2022/03/25 12:20:09;;;;;;;11.10;10.80;;;23.10;79.90;;;;;;6287188;22;20221;-80
2022/03/25 12:22:41;;;;;;;11.18;10.88;;;22.90;79.80;;;;;;6286013;22;20209;-80
2022/03/25 12:25:17;;;;;;;11.27;10.98;;;23.00;78.20;;;;;;6287106;22;20220;-80
2022/03/25 12:27:45;;;;;;;11.30;11.00;;;23.20;81.30;;;;;;6287062;22;20196;-80
2022/03/25 12:30:15;;;;;;;11.25;10.95;;;23.60;80.50;;;;;;6287468;22;20205;-80
2022/03/25 12:32:44;;;;;;;11.30;11.00;;;23.80;78.50;;;;;;6312702;22;20201;-83
2022/03/25 12:35:16;;;;;;;11.65;11.25;;;23.60;77.50;;;;;;6322290;22;20201;-82
2022/03/25 12:38:20;;;;;;;11.30;11.00;;;23.70;80.00;;;;;;6323233;22;20203;-83
2022/03/25 12:40:51;;;;;;;11.38;11.07;;;23.90;78.10;;;;;;6318775;22;20246;-83
2022/03/25 12:43:20;;;;;;;11.10;10.80;;;23.20;79.10;;;;;;6291936;22;20198;-83
2022/03/25 12:45:51;;;;;;;11.20;10.90;;;23.00;79.60;;;;;;6292349;22;20205;-82
2022/03/25 12:48:23;;;;;;;11.18;10.88;;;23.00;79.60;;;;;;6291729;22;20190;-83
2022/03/25 12:50:54;;;;;;;11.20;10.90;;;23.20;78.00;;;;;;6292227;22;20193;-83
2022/03/25 12:53:28;;;;;;;11.00;10.70;;;23.30;79.50;;;;;;6292136;22;20216;-83
2022/03/25 12:55:58;;;;;;;10.90;10.60;;;23.30;79.10;;;;;;6293275;22;20201;-83
2022/03/25 12:58:27;;;;;;;11.10;10.80;;;23.70;76.10;;;;;;6292328;22;20206;-83
2022/03/25 13:00:59;;;;;;;10.63;10.32;;;23.90;77.70;;;;;;6297473;22;20198;-84
2022/03/25 13:03:34;;;;;;;10.50;10.20;;;24.10;77.20;;;;;;6291794;22;20229;-83
2022/03/25 13:06:15;;;;;;;10.48;10.18;;;23.70;76.90;;;;;;6293946;22;20182;-84
2022/03/25 13:08:45;;;;;;;10.45;10.15;;;24.10;76.30;;;;;;6298396;22;20192;-84
2022/03/25 13:11:17;;;;;;;10.57;10.27;;;24.10;75.60;;;;;;6296498;22;20201;-84
2022/03/25 13:13:46;;;;;;;10.20;9.90;;;24.20;76.50;;;;;;6295189;22;20201;-84
2022/03/25 13:16:17;;;;;;;10.32;10.02;;;24.30;75.80;;;;;;6291552;22;20280;-84
2022/03/25 13:18:48;;;;;;;10.90;10.60;;;24.20;75.60;;;;;;6292643;22;20193;-85
2022/03/25 13:21:16;;;;;;;10.77;10.48;;;24.40;76.50;;;;;;6292162;22;20198;-84
2022/03/25 13:23:44;;;;;;;10.82;10.52;;;23.90;75.50;;;;;;6292490;22;20200;-84
2022/03/25 13:26:15;;;;;;;11.07;10.77;;;23.40;75.80;;;;;;6292844;22;20208;-83
2022/03/25 13:28:45;;;;;;;10.95;10.65;;;23.40;76.40;;;;;;6292420;22;20202;-83
2022/03/25 13:31:17;;;;;;;10.88;10.57;;;23.70;76.70;;;;;;6292847;22;20217;-84
2022/03/25 13:33:54;;;;;;;10.95;10.65;;;23.90;75.30;;;;;;6300416;22;20189;-83
2022/03/25 13:36:30;;;;;;;11.18;10.88;;;23.70;74.90;;;;;;6294029;22;20209;-83
2022/03/25 13:39:10;;;;;;;11.18;10.88;;;23.40;75.90;;;;;;6295558;22;20200;-83
2022/03/25 13:41:38;;;;;;;10.98;10.68;;;23.20;75.50;;;;;;6294493;22;20228;-83
2022/03/25 13:44:11;;;;;;;10.90;10.60;;;23.10;75.30;;;;;;6293737;22;20193;-83
2022/03/25 13:47:10;;;;;;;10.75;10.45;;;23.20;76.20;;;;;;6295966;22;20216;-83
2022/03/25 13:49:55;;;;;;;10.95;10.65;;;23.40;76.30;;;;;;6298584;22;20229;-83
2022/03/25 13:52:45;;;;;;;10.68;10.38;;;24.00;75.70;;;;;;6294589;22;20220;-83
2022/03/25 13:55:26;;;;;;;10.80;10.50;;;24.20;75.40;;;;;;6269992;22;20229;-83
2022/03/25 14:00:58;;;;;;;10.45;10.15;;;24.10;73.80;;;;;;6296518;22;20237;-83
2022/03/25 14:04:19;;;;;;;10.48;10.18;;;24.10;73.80;;;;;;6298819;22;20193;-83
2022/03/25 14:06:58;;;;;;;10.50;10.20;;;24.10;73.40;;;;;;6304214;22;20224;-83
2022/03/25 14:09:38;;;;;;;10.38;10.07;;;23.80;72.20;;;;;;6301383;22;20212;-83
2022/03/25 14:12:27;;;;;;;10.20;9.90;;;23.90;72.50;;;;;;6300257;22;20189;-83
2022/03/25 14:15:16;;;;;;;10.10;9.80;;;23.50;72.10;;;;;;6258883;22;20177;-82
2022/03/25 14:18:34;;;;;;;10.10;9.80;;;23.60;72.70;;;;;;6296074;22;20675;-82
2022/03/25 14:21:05;;;;;;;10.30;10.00;;;23.80;73.10;;;;;;6257651;22;20239;-82
2022/03/25 14:23:33;;;;;;;9.95;9.65;;;24.20;71.10;;;;;;6289510;22;20990;-83
2022/03/25 14:26:01;;;;;;;10.20;9.90;;;23.70;70.60;;;;;;6287303;22;20194;-83
2022/03/25 14:28:29;;;;;;;10.25;9.95;;;23.80;70.70;;;;;;6287939;22;20206;-83
2022/03/25 14:31:03;;;;;;;10.23;9.93;;;24.20;70.80;;;;;;6286841;22;20284;-83
2022/03/25 14:33:31;;;;;;;10.07;9.77;;;24.40;69.80;;;;;;6288782;22;20205;-83
2022/03/25 14:35:59;;;;;;;10.20;9.90;;;24.10;69.60;;;;;;6289863;22;20205;-84
2022/03/25 14:38:34;;;;;;;10.10;9.80;;;23.90;70.00;;;;;;6291190;22;20212;-84
2022/03/25 14:41:08;;;;;;;10.60;10.30;;;24.30;70.30;;;;;;6293547;22;20201;-84
2022/03/25 14:43:54;;;;;;;10.50;10.20;;;24.40;69.30;;;;;;6293155;22;20190;-83
2022/03/25 14:46:38;;;;;;;10.23;9.93;;;24.10;69.70;;;;;;6291632;22;20205;-83
2022/03/25 14:49:20;;;;;;;10.40;10.10;;;24.00;69.10;;;;;;6296400;22;20198;-84
2022/03/25 14:51:49;;;;;;;10.20;9.90;;;23.80;69.10;;;;;;6293153;22;20201;-84
2022/03/25 14:54:43;;;;;;;9.90;9.60;;;23.80;68.90;;;;;;6293005;22;20257;-84
2022/03/25 14:57:17;;;;;;;10.55;10.25;;;23.70;68.30;;;;;;6302344;22;20213;-83
2022/03/25 14:59:49;;;;;;;10.40;10.10;;;24.00;68.30;;;;;;6308897;22;20189;-83
2022/03/25 15:02:26;;;;;;;10.07;9.77;;;24.40;68.30;;;;;;6305994;22;20193;-84
2022/03/25 15:11:30;;;;;;;10.02;9.73;;;24.70;66.90;;;;;;6303444;22;20256;-83
2022/03/25 15:14:10;;;;;;;10.20;9.90;;;24.80;67.10;;;;;;6300668;22;20667;-84
2022/03/25 15:16:38;;;;;;;9.88;9.57;;;24.50;66.90;;;;;;6301207;22;20252;-83
2022/03/25 15:19:07;;;;;;;9.77;9.48;;;24.30;66.30;;;;;;6293367;22;20204;-84
2022/03/25 15:21:34;;;;;;;9.98;9.68;;;24.60;67.70;;;;;;6294123;22;20232;-84
2022/03/25 15:24:07;;;;;;;9.80;9.50;;;24.50;66.90;;;;;;6294013;22;20197;-84
2022/03/25 15:26:37;;;;;;;9.70;9.40;;;24.80;66.60;;;;;;6297524;22;20273;-84
2022/03/25 15:29:09;;;;;;;9.80;9.50;;;24.60;66.90;;;;;;6295841;22;20202;-84
2022/03/25 15:34:30;;;;;;;10.10;9.80;;;24.20;67.40;;;;;;6295761;22;20182;-84